createdAt,value
2019-03-16T00:03:18.952Z,14.40
2019-03-16T00:06:42.047Z,21.27
2019-03-16T00:10:05.520Z,16.17
2019-03-16T00:13:28.714Z,17.10
2019-03-16T00:16:52.943Z,19.43
2019-03-16T00:20:16.043Z,27.93
2019-03-16T00:23:39.197Z,30.67
2019-03-16T00:27:02.440Z,25.60
2019-03-16T00:30:25.560Z,21.63
2019-03-16T00:33:48.747Z,31.47
2019-03-16T00:37:11.887Z,31.00
2019-03-16T00:40:35.046Z,19.30
2019-03-16T00:43:58.285Z,30.73
2019-03-16T00:47:21.483Z,18.67
2019-03-16T00:50:44.579Z,22.03
2019-03-16T00:54:07.772Z,12.90
2019-03-16T00:57:31.947Z,17.40
2019-03-16T01:00:55.346Z,16.10
2019-03-16T01:04:18.612Z,24.30
2019-03-16T01:07:41.772Z,14.43
2019-03-16T01:11:04.863Z,16.67
2019-03-16T01:14:27.981Z,9.93
2019-03-16T01:17:51.217Z,11.57
2019-03-16T01:21:14.343Z,15.63
2019-03-16T01:24:37.525Z,10.43
2019-03-16T01:28:00.999Z,6.57
2019-03-16T01:31:24.148Z,13.83
2019-03-16T01:34:47.248Z,7.30
2019-03-16T01:38:10.696Z,8.47
2019-03-16T01:41:34.158Z,11.27
2019-03-16T01:44:57.249Z,9.20
2019-03-16T01:48:20.693Z,8.23
2019-03-16T01:51:44.245Z,10.33
2019-03-16T01:55:07.671Z,10.17
2019-03-16T01:58:30.813Z,9.60
2019-03-16T02:01:53.897Z,11.37
2019-03-16T02:05:16.992Z,9.63
2019-03-16T02:08:40.594Z,10.40
2019-03-16T02:12:03.873Z,12.27
2019-03-16T02:15:26.926Z,12.33
2019-03-16T02:18:50.359Z,5.77
2019-03-16T02:22:13.438Z,6.37
2019-03-16T02:25:36.531Z,9.63
2019-03-16T02:28:59.757Z,16.10
2019-03-16T02:32:23.187Z,11.70
2019-03-16T02:35:46.539Z,10.70
2019-03-16T02:39:09.685Z,5.03
2019-03-16T02:42:32.940Z,10.30
2019-03-16T02:45:56.125Z,10.30
2019-03-16T02:49:19.381Z,12.10
2019-03-16T02:52:42.608Z,11.30
2019-03-16T02:56:05.937Z,12.13
2019-03-16T02:59:29.301Z,10.67
2019-03-16T03:02:52.433Z,9.57
2019-03-16T03:06:15.701Z,13.10
2019-03-16T03:09:38.828Z,8.83
2019-03-16T03:13:02.040Z,12.57
2019-03-16T03:16:25.125Z,12.50
2019-03-16T03:19:48.548Z,15.53
2019-03-16T03:23:11.824Z,12.43
2019-03-16T03:26:35.024Z,20.10
2019-03-16T03:29:58.393Z,10.10
2019-03-16T03:33:21.537Z,11.30
2019-03-16T03:36:44.994Z,10.47
2019-03-16T03:40:08.235Z,10.97
2019-03-16T03:43:31.541Z,17.20
2019-03-16T03:46:54.677Z,20.60
2019-03-16T03:50:17.830Z,18.17
2019-03-16T03:53:41.512Z,17.87
2019-03-16T03:57:05.089Z,23.60
2019-03-16T04:00:28.242Z,17.70
2019-03-16T04:03:51.390Z,12.83
2019-03-16T04:07:14.653Z,20.30
2019-03-16T04:10:37.813Z,21.47
2019-03-16T04:14:01.016Z,27.17
2019-03-16T04:17:24.121Z,22.87
2019-03-16T04:20:47.559Z,25.80
2019-03-16T04:24:11.089Z,29.33
2019-03-16T04:27:34.259Z,18.83
2019-03-16T04:30:57.662Z,22.97
2019-03-16T04:34:29.024Z,19.27
2019-03-16T04:37:46.235Z,22.23
2019-03-16T04:41:09.399Z,20.83
2019-03-16T04:44:32.638Z,22.73
2019-03-16T04:47:55.736Z,24.27
2019-03-16T04:51:19.146Z,25.73
2019-03-16T04:54:42.360Z,21.87
2019-03-16T04:58:05.558Z,24.27
2019-03-16T05:01:28.760Z,21.07
2019-03-16T05:04:52.143Z,22.43
2019-03-16T05:08:15.294Z,24.03
2019-03-16T05:11:38.425Z,20.03
2019-03-16T05:15:01.652Z,18.80
2019-03-16T05:18:25.183Z,24.07
2019-03-16T05:21:48.375Z,21.67
2019-03-16T05:25:11.607Z,17.97
2019-03-16T05:28:34.757Z,20.37
2019-03-16T05:31:58.195Z,17.27
2019-03-16T05:35:21.288Z,17.93
2019-03-16T05:38:44.572Z,12.53
2019-03-16T05:42:07.733Z,17.63
2019-03-16T05:45:34.003Z,17.83
2019-03-16T05:48:57.154Z,18.83
2019-03-16T05:52:20.587Z,12.27
2019-03-16T05:55:43.913Z,21.10
2019-03-16T05:59:07.079Z,13.37
2019-03-16T06:02:30.253Z,13.13
2019-03-16T06:05:55.122Z,20.40
2019-03-16T06:09:18.339Z,21.00
2019-03-16T06:12:46.311Z,22.43
2019-03-16T06:16:06.664Z,20.00
2019-03-16T06:19:30.043Z,13.90
2019-03-16T06:22:53.274Z,17.30
2019-03-16T06:26:18.143Z,17.73
2019-03-16T06:29:41.348Z,15.90
2019-03-16T06:33:06.031Z,17.93
2019-03-16T06:36:29.157Z,14.37
2019-03-16T06:39:53.138Z,14.93
2019-03-16T06:43:16.305Z,9.70
2019-03-16T06:46:39.652Z,12.17
2019-03-16T06:50:03.395Z,14.23
2019-03-16T06:53:26.608Z,16.43
2019-03-16T06:56:52.280Z,14.63
2019-03-16T07:00:16.695Z,11.73
2019-03-16T07:03:39.813Z,11.20
2019-03-16T07:07:03.565Z,10.63
2019-03-16T07:10:26.624Z,20.27
2019-03-16T07:13:52.262Z,9.53
2019-03-16T07:17:21.814Z,12.03
2019-03-16T07:20:45.342Z,13.83
2019-03-16T07:24:08.999Z,14.97
2019-03-16T07:27:32.207Z,15.63
2019-03-16T07:30:57.423Z,11.90
2019-03-16T07:34:23.609Z,11.60
2019-03-16T07:37:52.147Z,13.13
2019-03-16T07:41:17.771Z,14.50
2019-03-16T07:44:40.947Z,14.20
2019-03-16T07:48:04.095Z,15.23
2019-03-16T07:51:27.274Z,11.00
2019-03-16T07:54:50.389Z,5.40
2019-03-16T07:58:13.492Z,4.13
2019-03-16T08:01:36.706Z,4.13
2019-03-16T08:04:59.983Z,5.30
2019-03-16T08:08:23.134Z,3.30
2019-03-16T08:11:46.237Z,3.83
2019-03-16T08:15:09.482Z,4.47
2019-03-16T08:18:32.773Z,7.20
2019-03-16T08:21:56.221Z,3.17
2019-03-16T08:25:19.468Z,4.43
2019-03-16T08:28:42.604Z,5.77
2019-03-16T08:32:06.718Z,3.90
2019-03-16T08:35:29.914Z,5.47
2019-03-16T08:38:53.084Z,3.23
2019-03-16T08:42:16.635Z,6.60
2019-03-16T08:45:39.778Z,6.33
2019-03-16T08:49:03.084Z,4.57
2019-03-16T08:52:26.223Z,6.30
2019-03-16T08:55:49.412Z,4.23
2019-03-16T08:59:12.694Z,4.27
2019-03-16T09:02:35.890Z,3.33
2019-03-16T09:05:59.432Z,8.23
2019-03-16T09:09:22.606Z,6.47
2019-03-16T09:12:54.944Z,5.47
2019-03-16T09:16:10.884Z,2.73
2019-03-16T09:19:34.006Z,3.87
2019-03-16T09:22:57.046Z,4.53
2019-03-16T09:26:20.489Z,6.07
2019-03-16T09:29:43.705Z,3.23
2019-03-16T09:33:06.846Z,1.47
2019-03-16T09:36:30.099Z,5.73
2019-03-16T09:39:53.198Z,3.77
2019-03-16T09:43:16.924Z,6.03
2019-03-16T09:46:40.236Z,2.70
2019-03-16T09:50:03.630Z,2.40
2019-03-16T09:53:26.723Z,2.87
2019-03-16T09:57:00.524Z,2.83
2019-03-16T10:00:15.316Z,3.07
2019-03-16T10:03:38.457Z,4.33
2019-03-16T10:07:01.740Z,2.80
2019-03-16T10:10:24.902Z,2.27
2019-03-16T10:13:48.025Z,3.20
2019-03-16T10:17:11.265Z,3.83
2019-03-16T10:20:34.798Z,3.57
2019-03-16T10:23:58.013Z,3.53
2019-03-16T10:27:21.148Z,3.73
2019-03-16T10:30:45.212Z,4.20
2019-03-16T10:34:08.491Z,3.13
2019-03-16T10:37:31.936Z,4.67
2019-03-16T10:40:55.089Z,2.30
2019-03-16T10:44:19.299Z,2.50
2019-03-16T10:47:42.598Z,1.90
2019-03-16T10:51:05.925Z,2.63
2019-03-16T10:54:29.148Z,2.30
2019-03-16T10:57:52.340Z,3.13
2019-03-16T11:01:15.563Z,2.47
2019-03-16T11:04:38.794Z,3.20
2019-03-16T11:08:02.319Z,3.97
2019-03-16T11:11:25.545Z,2.23
2019-03-16T11:14:48.819Z,1.80
2019-03-16T11:18:11.940Z,2.37
2019-03-16T11:21:35.171Z,2.60
2019-03-16T11:24:58.369Z,3.13
2019-03-16T11:28:21.476Z,3.97
2019-03-16T11:31:44.659Z,5.00
2019-03-16T11:35:08.993Z,4.40
2019-03-16T11:38:32.151Z,6.47
2019-03-16T11:41:55.588Z,2.10
2019-03-16T11:45:18.761Z,4.10
2019-03-16T11:48:41.824Z,2.75
2019-03-16T11:52:05.367Z,6.17
2019-03-16T11:55:28.489Z,3.77
2019-03-16T11:58:51.662Z,6.07
2019-03-16T12:02:14.774Z,8.37
2019-03-16T12:05:37.903Z,3.40
2019-03-16T12:09:01.059Z,2.07
2019-03-16T12:12:24.323Z,3.23
2019-03-16T12:15:47.489Z,3.40
2019-03-16T12:19:10.628Z,3.50
2019-03-16T12:22:33.809Z,4.30
2019-03-16T12:25:56.955Z,4.13
2019-03-16T12:29:20.374Z,3.43
2019-03-16T12:32:43.596Z,3.40
2019-03-16T12:36:06.710Z,2.77
2019-03-16T12:39:29.821Z,3.10
2019-03-16T12:42:52.880Z,2.60
2019-03-16T12:46:15.994Z,4.10
2019-03-16T12:49:39.126Z,5.37
2019-03-16T12:53:02.336Z,6.77
2019-03-16T12:56:25.617Z,3.50
2019-03-16T12:59:48.904Z,2.50
2019-03-16T13:03:12.334Z,5.07
2019-03-16T13:06:35.595Z,2.30
2019-03-16T13:09:58.720Z,2.17
2019-03-16T13:13:21.919Z,2.80
2019-03-16T13:16:45.239Z,5.90
2019-03-16T13:20:09.025Z,4.07
2019-03-16T13:23:32.394Z,2.93
2019-03-16T13:26:55.525Z,6.30
2019-03-16T13:30:18.953Z,2.23
2019-03-16T13:33:42.083Z,4.43
2019-03-16T13:37:05.256Z,1.90
2019-03-16T13:40:28.426Z,2.35
2019-03-16T13:43:51.882Z,1.60
2019-03-16T13:47:15.110Z,2.73
2019-03-16T13:50:38.250Z,3.43
2019-03-16T13:54:01.871Z,13.77
2019-03-16T13:57:25.120Z,22.93
2019-03-16T14:00:48.318Z,48.87
2019-03-16T14:04:12.016Z,38.57
2019-03-16T14:07:35.325Z,48.83
2019-03-16T14:10:58.571Z,24.25
2019-03-16T14:14:21.971Z,9.90
2019-03-16T14:17:45.173Z,3.70
2019-03-16T14:21:08.781Z,1.80
2019-03-16T14:24:32.084Z,3.80
2019-03-16T14:27:55.540Z,1.80
2019-03-16T14:31:18.704Z,2.30
2019-03-16T14:34:41.814Z,2.23
2019-03-16T14:38:05.292Z,3.10
2019-03-16T14:41:28.559Z,2.20
2019-03-16T14:44:51.921Z,2.60
2019-03-16T14:48:15.039Z,4.50
2019-03-16T14:51:38.171Z,2.60
2019-03-16T14:55:01.597Z,2.77
2019-03-16T14:58:24.806Z,5.28
2019-03-16T15:01:47.929Z,8.00
2019-03-16T15:05:11.132Z,2.40
2019-03-16T15:08:34.548Z,2.53
2019-03-16T15:11:57.805Z,2.17
2019-03-16T15:15:21.067Z,2.30
2019-03-16T15:18:45.186Z,2.60
2019-03-16T15:22:08.358Z,3.37
2019-03-16T15:25:31.488Z,5.90
2019-03-16T15:28:55.328Z,6.20
2019-03-16T15:32:18.702Z,3.70
2019-03-16T15:35:42.151Z,3.20
2019-03-16T15:39:06.935Z,5.13
2019-03-16T15:42:30.371Z,3.67
2019-03-16T15:45:56.477Z,2.67
2019-03-16T15:49:18.788Z,3.00
2019-03-16T15:52:42.066Z,3.37
2019-03-16T15:56:05.335Z,2.63
2019-03-16T15:59:28.513Z,6.10
2019-03-16T16:02:51.578Z,4.53
2019-03-16T16:06:14.895Z,2.67
2019-03-16T16:09:38.289Z,6.20
2019-03-16T16:13:01.538Z,4.13
2019-03-16T16:16:24.918Z,6.17
2019-03-16T16:19:48.095Z,8.40
2019-03-16T16:23:11.441Z,7.27
2019-03-16T16:26:34.543Z,3.53
2019-03-16T16:29:58.093Z,4.77
2019-03-16T16:33:21.200Z,8.93
2019-03-16T16:36:44.283Z,4.57
2019-03-16T16:40:08.906Z,4.60
2019-03-16T16:43:32.152Z,3.07
2019-03-16T16:46:55.238Z,8.00
2019-03-16T16:50:18.477Z,6.60
2019-03-16T16:53:41.748Z,5.70
2019-03-16T16:57:05.854Z,4.57
2019-03-16T17:00:30.329Z,9.23
2019-03-16T17:03:53.561Z,4.07
2019-03-16T17:07:16.683Z,3.03
2019-03-16T17:10:40.082Z,4.63
2019-03-16T17:14:03.339Z,4.57
2019-03-16T17:17:35.162Z,5.13
2019-03-16T17:20:51.496Z,5.20
2019-03-16T17:24:15.712Z,3.27
2019-03-16T17:27:39.185Z,7.07
2019-03-16T17:31:06.530Z,5.43
2019-03-16T17:34:29.634Z,5.10
2019-03-16T17:37:52.850Z,5.13
2019-03-16T17:41:15.968Z,7.40
2019-03-16T17:44:39.594Z,4.80
2019-03-16T17:48:02.752Z,6.27
2019-03-16T17:51:38.944Z,6.07
2019-03-16T17:55:02.251Z,7.47
2019-03-16T17:58:25.458Z,3.80
2019-03-16T18:01:54.690Z,3.70
2019-03-16T18:05:13.732Z,8.73
2019-03-16T18:08:37.002Z,3.83
2019-03-16T18:12:00.129Z,4.00
2019-03-16T18:15:24.380Z,3.93
2019-03-16T18:18:47.548Z,3.67
2019-03-16T18:22:10.811Z,8.27
2019-03-16T18:25:34.237Z,4.00
2019-03-16T18:28:57.427Z,3.33
2019-03-16T18:32:20.561Z,4.37
2019-03-16T18:35:43.664Z,3.97
2019-03-16T18:39:06.802Z,3.87
2019-03-16T18:42:30.009Z,6.10
2019-03-16T18:45:53.342Z,6.73
2019-03-16T18:49:16.799Z,6.47
2019-03-16T18:52:40.135Z,4.13
2019-03-16T18:56:03.730Z,7.27
2019-03-16T18:59:28.010Z,5.37
2019-03-16T19:02:51.400Z,6.03
2019-03-16T19:06:14.747Z,4.57
2019-03-16T19:09:37.894Z,7.37
2019-03-16T19:13:01.038Z,4.97
2019-03-16T19:16:24.542Z,9.13
2019-03-16T19:19:47.782Z,7.73
2019-03-16T19:23:11.150Z,8.20
2019-03-16T19:26:34.677Z,9.33
2019-03-16T19:30:00.440Z,5.10
2019-03-16T19:33:23.660Z,7.53
2019-03-16T19:36:47.004Z,9.03
2019-03-16T19:40:10.669Z,6.03
2019-03-16T19:43:33.812Z,5.80
2019-03-16T19:46:57.114Z,8.07
2019-03-16T19:50:20.289Z,9.40
2019-03-16T19:53:43.380Z,7.37
2019-03-16T19:57:15.891Z,6.20
2019-03-16T20:00:31.567Z,9.43
2019-03-16T20:03:54.658Z,7.40
2019-03-16T20:07:19.651Z,8.67
2019-03-16T20:10:43.919Z,6.23
2019-03-16T20:14:07.746Z,5.40
2019-03-16T20:17:31.944Z,6.30
2019-03-16T20:20:57.258Z,8.90
2019-03-16T20:24:20.517Z,7.43
2019-03-16T20:27:48.776Z,7.33
2019-03-16T20:31:13.889Z,7.47
2019-03-16T20:34:37.030Z,5.90
2019-03-16T20:38:00.577Z,7.53
2019-03-16T20:41:35.542Z,8.57
2019-03-16T20:44:49.337Z,13.47
2019-03-16T20:48:13.221Z,6.03
2019-03-16T20:51:36.386Z,6.20
2019-03-16T20:54:59.918Z,8.97
2019-03-16T20:58:23.067Z,8.13
2019-03-16T21:01:47.441Z,7.40
2019-03-16T21:05:10.970Z,7.00
2019-03-16T21:08:34.378Z,7.27
2019-03-16T21:11:59.520Z,11.63
2019-03-16T21:15:23.749Z,9.87
2019-03-16T21:18:49.476Z,10.13
2019-03-16T21:22:15.192Z,8.27
2019-03-16T21:25:38.524Z,9.23
2019-03-16T21:29:01.752Z,8.70
2019-03-16T21:32:24.988Z,9.70
2019-03-16T21:35:48.162Z,5.10
2019-03-16T21:39:16.834Z,11.47
2019-03-16T21:42:41.421Z,5.43
2019-03-16T21:46:08.710Z,7.80
2019-03-16T21:49:33.733Z,5.90
2019-03-16T21:52:57.022Z,7.23
2019-03-16T21:56:21.127Z,5.43
2019-03-16T21:59:44.473Z,6.00
2019-03-16T22:03:08.117Z,6.57
2019-03-16T22:06:31.458Z,7.60
2019-03-16T22:09:54.773Z,5.97
2019-03-16T22:13:17.953Z,4.83
2019-03-16T22:16:41.496Z,4.73
2019-03-16T22:20:06.938Z,5.40
2019-03-16T22:23:31.316Z,4.83
2019-03-16T22:26:54.636Z,5.57
2019-03-16T22:30:18.491Z,4.70
2019-03-16T22:33:49.944Z,5.07
2019-03-16T22:37:07.213Z,9.43
2019-03-16T22:40:30.762Z,6.77
2019-03-16T22:43:53.912Z,5.40
2019-03-16T22:47:17.152Z,5.17
2019-03-16T22:50:40.423Z,5.70
2019-03-16T22:54:03.810Z,9.10
2019-03-16T22:57:27.273Z,5.70
2019-03-16T23:00:52.336Z,6.10
2019-03-16T23:04:15.655Z,4.97
2019-03-16T23:07:38.901Z,5.77
2019-03-16T23:11:02.047Z,4.93
2019-03-16T23:14:25.222Z,4.40
2019-03-16T23:17:48.634Z,4.80
2019-03-16T23:21:11.863Z,5.40
2019-03-16T23:24:35.255Z,3.73
2019-03-16T23:27:58.490Z,7.60
2019-03-16T23:31:24.533Z,8.00
2019-03-16T23:34:47.752Z,4.10
2019-03-16T23:38:11.049Z,6.33
2019-03-16T23:41:34.691Z,5.63
2019-03-16T23:44:58.482Z,8.57
2019-03-16T23:48:21.630Z,7.60
2019-03-16T23:51:44.760Z,5.73
2019-03-16T23:55:08.097Z,9.23
2019-03-16T23:58:31.175Z,5.80
